createdAt,value
2018-06-17T05:34:25.220Z,17.7
2018-06-17T05:35:15.584Z,17.8
2018-06-17T05:36:05.638Z,17.8
2018-06-17T05:36:55.416Z,17.9
2018-06-17T05:37:45.762Z,17.9
2018-06-17T05:38:35.563Z,18.1
2018-06-17T05:39:25.942Z,18
2018-06-17T05:40:15.964Z,17.9
2018-06-17T05:41:05.999Z,17.7
2018-06-17T05:41:56.122Z,17.6
2018-06-17T05:42:46.224Z,17.7
2018-06-17T05:43:36.252Z,17.8
2018-06-17T05:44:25.814Z,17.8
2018-06-17T05:45:16.331Z,17.7
2018-06-17T05:46:06.117Z,17.7
2018-06-17T05:46:56.527Z,17.6
2018-06-17T05:47:46.552Z,17.7
2018-06-17T05:48:36.564Z,17.7
2018-06-17T05:49:26.632Z,17.6
2018-06-17T05:50:16.694Z,17.6
2018-06-17T05:51:06.508Z,17.6
2018-06-17T05:51:56.819Z,17.7
2018-06-17T05:52:46.906Z,17.8
2018-06-17T05:53:36.991Z,17.8
2018-06-17T05:54:27.056Z,17.8
2018-06-17T05:55:17.073Z,17.7
2018-06-17T05:56:07.152Z,17.8
2018-06-17T05:56:56.953Z,17.8
2018-06-17T05:57:47.286Z,17.9
2018-06-17T05:58:37.453Z,18
2018-06-17T05:59:27.165Z,18
2018-06-17T06:00:17.473Z,18
2018-06-17T06:01:07.551Z,18.3
2018-06-17T06:01:57.595Z,18.5
2018-06-17T06:02:47.690Z,18.6
2018-06-17T06:03:37.461Z,18.5
2018-06-17T06:04:27.261Z,18.4
2018-06-17T06:05:17.832Z,18.5
2018-06-17T06:06:07.955Z,18.5
2018-06-17T06:06:58.018Z,18.6
2018-06-17T06:07:48.047Z,18.9
2018-06-17T06:08:38.115Z,18.9
2018-06-17T06:09:27.595Z,18.9
2018-06-17T06:10:18.487Z,18.9
2018-06-17T06:11:07.735Z,19
2018-06-17T06:11:57.828Z,19
2018-06-17T06:12:48.121Z,18.9
2018-06-17T06:13:37.940Z,18.8
2018-06-17T06:16:08.466Z,18.6
2018-06-17T06:16:57.966Z,18.6
2018-06-17T06:17:48.545Z,18.6
2018-06-17T06:18:38.038Z,18.8
2018-06-17T06:21:58.840Z,18.8
2018-06-17T06:23:39.247Z,18.8
2018-06-17T06:24:28.802Z,18.8
2018-06-17T06:25:19.099Z,18.8
2018-06-17T06:26:09.410Z,18.8
2018-06-17T06:26:58.923Z,18.9
2018-06-17T06:27:49.615Z,18.9
2018-06-17T06:28:39.087Z,19
2018-06-17T06:29:29.431Z,19.2
2018-06-17T06:30:19.735Z,19.3
2018-06-17T06:31:09.521Z,19.4
2018-06-17T06:31:59.881Z,19.6
2018-06-17T06:32:49.941Z,19.4
2018-06-17T06:33:39.997Z,19.4
2018-06-17T06:34:30.057Z,19.4
2018-06-17T06:35:20.111Z,19.5
2018-06-17T06:36:10.187Z,19.8
2018-06-17T06:36:59.727Z,20
2018-06-17T06:37:50.330Z,20.3
2018-06-17T06:38:39.826Z,20.3
2018-06-17T06:39:30.174Z,20.3
2018-06-17T06:40:20.218Z,20.3
2018-06-17T06:41:10.585Z,19.9
2018-06-17T06:42:00.621Z,19.8
2018-06-17T06:42:50.694Z,19.8
2018-06-17T06:43:40.745Z,19.7
2018-06-17T06:44:30.552Z,19.8
2018-06-17T06:45:20.332Z,19.8
2018-06-17T06:46:10.936Z,19.7
2018-06-17T06:47:01.030Z,19.6
2018-06-17T06:47:50.798Z,19.6
2018-06-17T06:48:40.859Z,19.5
2018-06-17T06:49:30.902Z,19.6
2018-06-17T06:50:21.272Z,19.6
2018-06-17T06:51:11.244Z,19.7
2018-06-17T06:52:00.281Z,19.9
2018-06-17T06:52:51.221Z,20
2018-06-17T06:53:41.565Z,20.1
2018-06-17T06:54:31.580Z,20.3
2018-06-17T06:55:21.387Z,20.3
2018-06-17T06:56:11.168Z,20.4
2018-06-17T06:57:01.836Z,20.3
2018-06-17T06:57:51.885Z,20.4
2018-06-17T06:58:41.934Z,20.6
2018-06-17T06:59:31.978Z,20.8
2018-06-17T07:00:21.480Z,20.8
2018-06-17T07:01:11.541Z,20.7
2018-06-17T07:02:01.696Z,20.9
2018-06-17T07:02:51.942Z,21.5
2018-06-17T07:03:42.005Z,21.8
2018-06-17T07:04:32.328Z,21.9
2018-06-17T07:05:22.395Z,21.7
2018-06-17T07:06:12.198Z,21.9
2018-06-17T07:07:02.558Z,22.1
2018-06-17T07:07:52.567Z,21.8
2018-06-17T07:08:42.660Z,22.1
2018-06-17T07:09:32.439Z,22.5
2018-06-17T07:10:22.781Z,22.4
2018-06-17T07:11:12.290Z,22.6
2018-06-17T07:12:02.937Z,22.8
2018-06-17T07:12:52.967Z,22.7
2018-06-17T07:13:42.469Z,22.8
2018-06-17T07:14:33.087Z,22.9
2018-06-17T07:15:22.884Z,22.9
2018-06-17T07:16:13.005Z,22.5
2018-06-17T07:17:03.289Z,22.6
2018-06-17T07:17:52.513Z,23
2018-06-17T07:18:43.410Z,23
2018-06-17T07:19:33.474Z,23
2018-06-17T07:20:23.528Z,23.4
2018-06-17T07:21:13.359Z,23.4
2018-06-17T07:22:02.944Z,23.4
2018-06-17T07:22:53.783Z,23.7
2018-06-17T07:23:43.799Z,23.5
2018-06-17T07:24:33.835Z,23.6
2018-06-17T07:25:23.912Z,23.3
2018-06-17T07:26:13.420Z,22.7
2018-06-17T07:27:03.757Z,21.6
2018-06-17T07:27:53.591Z,21.7
2018-06-17T07:28:43.877Z,22.2
2018-06-17T07:29:33.964Z,22.6
2018-06-17T07:30:24.276Z,23
2018-06-17T07:31:14.346Z,23.3
2018-06-17T07:32:04.144Z,23.7
2018-06-17T07:32:54.499Z,23.8
2018-06-17T07:33:44.354Z,24
2018-06-17T07:34:34.354Z,24.3
2018-06-17T07:35:24.125Z,24.5
2018-06-17T07:36:14.485Z,24.1
2018-06-17T07:37:04.878Z,24.4
2018-06-17T07:37:54.602Z,24.3
2018-06-17T07:38:44.931Z,24.1
2018-06-17T07:39:34.419Z,24.4
2018-06-17T07:40:25.111Z,24.4
2018-06-17T07:41:14.840Z,24.4
2018-06-17T07:42:04.923Z,24.3
2018-06-17T07:42:55.272Z,24.8
2018-06-17T07:43:45.586Z,24.8
2018-06-17T07:44:35.445Z,24.3
2018-06-17T07:45:24.888Z,23.8
2018-06-17T07:46:15.217Z,23.7
2018-06-17T07:47:05.580Z,23.6
2018-06-17T07:47:55.368Z,23.5
2018-06-17T07:48:45.430Z,23.4
2018-06-17T07:49:35.800Z,23.5
2018-06-17T07:50:25.262Z,22.8
2018-06-17T07:51:15.622Z,22.9
2018-06-17T07:52:05.948Z,23.1
2018-06-17T07:52:56.017Z,22.9
2018-06-17T07:53:45.819Z,23.1
2018-06-17T07:54:36.127Z,23.2
2018-06-17T07:55:26.226Z,22.9
2018-06-17T07:56:15.719Z,22.9
2018-06-17T07:57:06.386Z,23.3
2018-06-17T07:57:56.186Z,23.8
2018-06-17T07:58:46.488Z,24.3
2018-06-17T07:59:36.249Z,24.8
2018-06-17T08:00:26.576Z,25.3
2018-06-17T08:01:16.636Z,25.6
2018-06-17T08:02:06.433Z,25.8
2018-06-17T08:02:56.504Z,25.4
2018-06-17T08:03:46.830Z,25.4
2018-06-17T08:04:36.749Z,25.6
2018-06-17T08:05:26.968Z,25.9
2018-06-17T08:06:17.033Z,25.5
2018-06-17T08:07:07.095Z,24.8
2018-06-17T08:07:57.150Z,24.3
2018-06-17T08:08:47.224Z,24.9
2018-06-17T08:09:37.299Z,24.9
2018-06-17T08:10:27.357Z,24.5
2018-06-17T08:11:17.423Z,24.6
2018-06-17T08:12:07.205Z,25
2018-06-17T08:12:57.527Z,24.8
2018-06-17T08:13:47.588Z,24.8
2018-06-17T08:14:37.704Z,25.1
2018-06-17T08:15:27.725Z,25.4
2018-06-17T08:16:17.808Z,25.7
2018-06-17T08:17:07.891Z,25.9
2018-06-17T08:17:57.353Z,25.8
2018-06-17T08:18:48.005Z,25.5
2018-06-17T08:19:38.040Z,25
2018-06-17T08:20:28.122Z,24.8
2018-06-17T08:21:18.194Z,24.9
2018-06-17T08:22:08.261Z,25.2
2018-06-17T08:22:58.057Z,25.7
2018-06-17T08:23:48.113Z,25.9
2018-06-17T08:24:38.436Z,26.3
2018-06-17T08:25:27.955Z,26.4
2018-06-17T08:26:18.553Z,25.8
2018-06-17T08:27:08.614Z,25.9
2018-06-17T08:27:58.680Z,26.4
2018-06-17T08:28:48.501Z,26.6
2018-06-17T08:29:38.814Z,26.9
2018-06-17T08:30:29.002Z,27.3
2018-06-17T08:31:18.669Z,27.2
2018-06-17T08:32:08.464Z,27.2
2018-06-17T08:32:59.067Z,26.9
2018-06-17T08:33:49.147Z,26.9
2018-06-17T08:34:38.639Z,27.3
2018-06-17T08:35:29.301Z,26.6
2018-06-17T08:36:19.383Z,25.4
2018-06-17T08:37:09.156Z,24.9
2018-06-17T08:37:59.495Z,24.8
2018-06-17T08:38:48.666Z,24.9
2018-06-17T08:39:38.753Z,25.1
2018-06-17T08:40:29.154Z,24.5
2018-06-17T08:41:19.714Z,24.6
2018-06-17T08:42:09.518Z,24.3
2018-06-17T08:42:59.558Z,24.8
2018-06-17T08:43:49.407Z,25.7
2018-06-17T08:44:39.964Z,25.6
2018-06-17T08:45:29.512Z,24.8
2018-06-17T08:46:20.122Z,25.3
2018-06-17T08:47:10.169Z,25.8
2018-06-17T08:48:00.242Z,26
2018-06-17T08:48:50.295Z,25.8
2018-06-17T08:49:40.087Z,26.1
2018-06-17T08:50:30.426Z,26.4
2018-06-17T08:51:20.203Z,26.7
2018-06-17T08:52:10.286Z,26.8
2018-06-17T08:53:00.605Z,26.7
2018-06-17T08:53:50.381Z,26.9
2018-06-17T08:54:40.452Z,26.7
2018-06-17T08:55:30.792Z,26.8
2018-06-17T08:56:20.331Z,26.8
2018-06-17T08:57:10.650Z,26.9
2018-06-17T08:58:01.015Z,26.6
2018-06-17T08:58:50.239Z,26.4
2018-06-17T08:59:40.583Z,26.9
2018-06-17T09:00:30.356Z,26.8
2018-06-17T09:01:20.958Z,27.3
2018-06-17T09:02:11.338Z,27.3
2018-06-17T09:03:01.365Z,27.3
2018-06-17T09:03:51.520Z,26.4
2018-06-17T09:04:41.520Z,26.4
2018-06-17T09:05:31.596Z,25.6
2018-06-17T09:06:21.064Z,26.2
2018-06-17T09:07:11.686Z,26.9
2018-06-17T09:08:01.780Z,26.8
2018-06-17T09:08:51.546Z,26.4
2018-06-17T09:09:41.901Z,25.9
2018-06-17T09:10:31.404Z,25.3
2018-06-17T09:11:21.468Z,25.9
2018-06-17T09:12:12.148Z,26.9
2018-06-17T09:13:01.879Z,27.6
2018-06-17T09:13:52.194Z,27.7
2018-06-17T09:14:42.273Z,28
2018-06-17T09:15:32.327Z,27.6
2018-06-17T09:17:12.473Z,27.9
2018-06-17T09:18:02.518Z,27.8
2018-06-17T09:18:52.588Z,27.6
2018-06-17T09:19:42.728Z,27.4
2018-06-17T09:20:32.576Z,27.1
2018-06-17T09:21:22.518Z,27.1
2018-06-17T09:22:12.590Z,27.3
2018-06-17T09:23:02.913Z,27.6
2018-06-17T09:24:42.782Z,27.9
2018-06-17T09:25:33.097Z,28.3
2018-06-17T09:26:23.158Z,28.4
2018-06-17T09:27:12.944Z,28.1
2018-06-17T09:28:03.338Z,28.4
2018-06-17T09:28:52.850Z,28.4
2018-06-17T09:29:43.431Z,28.5
2018-06-17T09:30:33.497Z,28.5
2018-06-17T09:31:23.583Z,27.9
2018-06-17T09:32:14.122Z,27.3
2018-06-17T09:33:53.788Z,28.6
2018-06-17T09:34:43.814Z,28.7
2018-06-17T09:35:33.907Z,28.5
2018-06-17T09:36:23.683Z,28.4
2018-06-17T09:37:14.001Z,28.6
2018-06-17T09:38:04.056Z,28.8
2018-06-17T09:38:53.684Z,29
2018-06-17T09:39:44.194Z,29.2
2018-06-17T09:40:34.275Z,29.6
2018-06-17T09:41:24.066Z,29.7
2018-06-17T09:42:14.394Z,29.8
2018-06-17T09:43:04.452Z,29.5
2018-06-17T09:43:53.972Z,29.4
2018-06-17T09:44:44.595Z,29.4
2018-06-17T09:45:33.528Z,28.7
2018-06-17T09:46:24.769Z,28.6
2018-06-17T09:47:14.779Z,28.4
2018-06-17T09:48:04.026Z,28.4
2018-06-17T09:48:54.632Z,28.4
2018-06-17T09:49:44.706Z,28.4
2018-06-17T09:50:35.010Z,28.5
2018-06-17T09:51:25.109Z,29
2018-06-17T09:52:15.195Z,28.8
2018-06-17T09:53:04.935Z,27.7
2018-06-17T09:53:55.015Z,26.9
2018-06-17T09:54:45.370Z,26.3
2018-06-17T09:55:35.145Z,26.8
2018-06-17T09:56:25.238Z,27.5
2018-06-17T09:57:15.008Z,27.6
2018-06-17T09:58:05.611Z,27.6
2018-06-17T09:58:55.406Z,28.2
2018-06-17T09:59:45.762Z,28.3
2018-06-17T10:00:35.545Z,28.7
2018-06-17T10:01:26.009Z,28.8
2018-06-17T10:02:15.954Z,29.1
2018-06-17T10:03:05.727Z,29.1
2018-06-17T10:03:55.507Z,29.8
2018-06-17T10:04:46.118Z,29.9
2018-06-17T10:05:36.196Z,30.1
2018-06-17T10:06:26.023Z,29.8
2018-06-17T10:07:16.327Z,29.1
2018-06-17T10:08:05.834Z,29
2018-06-17T10:08:56.377Z,29.5
2018-06-17T10:09:46.254Z,30.3
2018-06-17T10:10:36.590Z,30.7
2018-06-17T10:11:26.663Z,30.6
2018-06-17T10:12:16.691Z,30.8
2018-06-17T10:13:06.784Z,30.7
2018-06-17T10:13:56.822Z,31
2018-06-17T10:14:46.899Z,31.1
2018-06-17T10:15:36.663Z,30.1
2018-06-17T10:16:27.015Z,29.5
2018-06-17T10:17:17.112Z,29.4
2018-06-17T10:18:07.157Z,29.2
2018-06-17T10:18:56.691Z,29.4
2018-06-17T10:19:47.291Z,29.3
2018-06-17T10:20:37.382Z,29.7
2018-06-17T10:21:27.408Z,30.1
2018-06-17T10:22:17.463Z,29.6
2018-06-17T10:23:07.542Z,29.5
2018-06-17T10:23:57.312Z,29
2018-06-17T10:24:47.672Z,28.6
2018-06-17T10:25:37.200Z,28.7
2018-06-17T10:26:27.813Z,28.9
2018-06-17T10:27:17.848Z,28.8
2018-06-17T10:28:07.643Z,28.6
2018-06-17T10:28:57.995Z,28.4
2018-06-17T10:29:48.060Z,28.5
2018-06-17T10:30:37.872Z,28.6
2018-06-17T10:31:27.897Z,28.6
2018-06-17T10:32:18.018Z,28.6
2018-06-17T10:33:08.043Z,28.2
2018-06-17T10:34:48.433Z,27.7
2018-06-17T10:35:37.952Z,27.8
2018-06-17T10:36:28.599Z,27.7
2018-06-17T10:37:18.380Z,27.5
2018-06-17T10:38:09.121Z,27.6
2018-06-17T10:38:58.244Z,27.6
2018-06-17T10:39:48.572Z,27.4
2018-06-17T10:40:38.329Z,27
2018-06-17T10:41:28.967Z,27.1
2018-06-17T10:42:19.021Z,26.9
2018-06-17T10:43:08.797Z,26.8
2018-06-17T10:43:58.875Z,26.8
2018-06-17T10:44:49.218Z,27
2018-06-17T10:45:39.289Z,27
2018-06-17T10:46:29.326Z,27.1
2018-06-17T10:47:18.491Z,27.1
2018-06-17T10:48:08.890Z,27.1
2018-06-17T10:48:59.984Z,27.1
2018-06-17T10:49:49.102Z,27.1
2018-06-17T10:50:39.597Z,26.9
2018-06-17T10:51:29.768Z,26.9
2018-06-17T10:52:19.527Z,26.7
2018-06-17T10:53:09.908Z,26.3
2018-06-17T10:53:59.906Z,26.3
2018-06-17T10:54:49.710Z,26.1
2018-06-17T10:55:40.538Z,26.2
2018-06-17T10:56:30.132Z,25.8
2018-06-17T10:57:19.911Z,25.8
2018-06-17T10:58:10.251Z,25.9
2018-06-17T10:58:59.755Z,26
2018-06-17T10:59:50.357Z,26.1
2018-06-17T11:00:40.406Z,25.9
2018-06-17T11:01:30.243Z,25.8
2018-06-17T11:02:19.820Z,25.7
2018-06-17T11:03:10.364Z,25.6
2018-06-17T11:04:00.685Z,25.6
2018-06-17T11:04:50.479Z,25.6
2018-06-17T11:05:41.714Z,25.6
2018-06-17T11:06:30.601Z,25.8
2018-06-17T11:07:20.949Z,25.8
2018-06-17T11:08:11.015Z,25.8
2018-06-17T11:09:01.093Z,25.6
2018-06-17T11:09:50.891Z,25.3
2018-06-17T11:10:41.210Z,25.3
2018-06-17T11:11:30.715Z,25.1
2018-06-17T11:12:21.031Z,24.9
2018-06-17T11:13:11.610Z,24.8
2018-06-17T11:14:00.891Z,24.8
2018-06-17T11:14:51.514Z,24.6
2018-06-17T11:15:41.317Z,24.5
2018-06-17T11:16:31.105Z,24.5
2018-06-17T11:17:21.717Z,24.6
2018-06-17T11:18:11.808Z,24.6
2018-06-17T11:19:01.557Z,24.7
2018-06-17T11:19:51.664Z,24.5
2018-06-17T11:20:41.730Z,24.5
2018-06-17T11:21:32.019Z,24.5
2018-06-17T11:22:22.137Z,24.4
2018-06-17T11:23:11.900Z,24.4
2018-06-17T11:24:02.284Z,24.5
2018-06-17T11:24:52.023Z,24.7
2018-06-17T11:25:42.352Z,24.6
2018-06-17T11:26:32.340Z,24.7
2018-06-17T11:27:22.497Z,24.6
2018-06-17T11:28:12.249Z,24.6
2018-06-17T11:29:01.797Z,24.6
2018-06-17T11:29:52.112Z,24.8
2018-06-17T11:30:42.744Z,24.8
2018-06-17T11:31:32.800Z,24.8
2018-06-17T11:32:22.899Z,24.7
2018-06-17T11:33:12.377Z,24.8
2018-06-17T11:34:02.748Z,24.8
2018-06-17T11:34:52.777Z,24.9
2018-06-17T11:35:43.173Z,24.9
2018-06-17T11:36:33.181Z,25.1
2018-06-17T11:37:22.983Z,25.1
2018-06-17T11:38:13.034Z,25.1
2018-06-17T11:39:04.528Z,25
2018-06-17T11:39:53.503Z,25
2018-06-17T11:40:43.495Z,25
2018-06-17T11:41:33.319Z,25.1
2018-06-17T11:42:23.439Z,25.3
2018-06-17T11:43:13.723Z,25.4
2018-06-17T11:44:03.808Z,25.4
2018-06-17T11:44:53.846Z,25.4
2018-06-17T11:45:43.940Z,25.4
2018-06-17T11:46:33.693Z,25.3
2018-06-17T11:47:23.747Z,25.4
2018-06-17T11:48:14.082Z,25.3
2018-06-17T11:49:03.590Z,25.3
2018-06-17T11:49:53.933Z,25.4
2018-06-17T11:50:44.265Z,25.3
2018-06-17T11:51:33.759Z,25.4
2018-06-17T11:52:24.150Z,25.5
2018-06-17T11:53:14.200Z,25.4
2018-06-17T11:54:04.270Z,25.5
2018-06-17T11:54:54.348Z,25.5
2018-06-17T11:55:44.403Z,25.7
2018-06-17T11:56:34.167Z,25.5
2018-06-17T11:57:24.783Z,25.4
2018-06-17T11:58:14.363Z,25.4
2018-06-17T11:59:04.455Z,25.6
2018-06-17T11:59:55.000Z,25.6
2018-06-17T12:00:45.087Z,25.6
2018-06-17T12:01:35.124Z,25.6
2018-06-17T12:02:25.172Z,25.7
2018-06-17T12:03:15.252Z,25.8
2018-06-17T12:04:05.015Z,25.9
2018-06-17T12:04:55.072Z,25.9
2018-06-17T12:05:45.448Z,25.9
2018-06-17T12:06:35.484Z,25.8
2018-06-17T12:07:25.562Z,25.8
2018-06-17T12:08:15.632Z,25.9
2018-06-17T12:09:05.425Z,25.9
2018-06-17T12:09:55.765Z,26
2018-06-17T12:10:45.801Z,26.1
2018-06-17T12:11:35.866Z,26.3
2018-06-17T12:12:25.939Z,26.4
2018-06-17T12:13:15.995Z,26.3
2018-06-17T12:14:06.060Z,26.3
2018-06-17T12:14:55.889Z,26.2
2018-06-17T12:15:46.206Z,26.3
2018-06-17T12:16:35.721Z,26.2
2018-06-17T12:17:26.313Z,26.3
2018-06-17T12:18:16.405Z,26.3
2018-06-17T12:19:06.447Z,26.3
2018-06-17T12:19:56.322Z,25.9
2018-06-17T12:20:46.576Z,25.9
2018-06-17T12:21:36.651Z,25.9
2018-06-17T12:22:26.728Z,25.8
2018-06-17T12:23:16.800Z,25.7
2018-06-17T12:24:06.068Z,25.8
2018-06-17T12:24:56.436Z,26
2018-06-17T12:25:47.018Z,26.4
2018-06-17T12:26:36.766Z,26.6
2018-06-17T12:27:26.615Z,26.9
2018-06-17T12:28:16.898Z,27.5
2018-06-17T12:29:06.938Z,27.7
2018-06-17T12:29:57.016Z,27.8
2018-06-17T12:31:37.401Z,27.9
2018-06-17T12:32:27.224Z,27.8
2018-06-17T12:33:17.271Z,28
